sensor_id;sensor_type;location;lat;lon;timestamp;temperature;humidity
33139;DHT22;19501;50.948;5.316;2023-04-08T00:00:49;9.60;99.90
33139;DHT22;19501;50.948;5.316;2023-04-08T00:03:17;9.40;99.90
33139;DHT22;19501;50.948;5.316;2023-04-08T00:05:43;9.40;99.90
33139;DHT22;19501;50.948;5.316;2023-04-08T00:08:09;9.40;99.90
33139;DHT22;19501;50.948;5.316;2023-04-08T00:10:34;9.40;99.90
33139;DHT22;19501;50.948;5.316;2023-04-08T00:13:00;9.50;99.90
33139;DHT22;19501;50.948;5.316;2023-04-08T00:15:26;9.50;99.90
33139;DHT22;19501;50.948;5.316;2023-04-08T00:17:54;9.60;99.90
33139;DHT22;19501;50.948;5.316;2023-04-08T00:20:23;9.60;99.90
33139;DHT22;19501;50.948;5.316;2023-04-08T00:22:49;9.60;99.90
33139;DHT22;19501;50.948;5.316;2023-04-08T00:25:17;9.70;99.90
33139;DHT22;19501;50.948;5.316;2023-04-08T00:27:42;9.70;99.90
33139;DHT22;19501;50.948;5.316;2023-04-08T00:30:08;9.70;99.90
33139;DHT22;19501;50.948;5.316;2023-04-08T00:32:34;9.60;99.90
33139;DHT22;19501;50.948;5.316;2023-04-08T00:35:00;9.60;99.90
33139;DHT22;19501;50.948;5.316;2023-04-08T00:37:27;9.60;99.90
33139;DHT22;19501;50.948;5.316;2023-04-08T00:39:52;9.80;99.90
33139;DHT22;19501;50.948;5.316;2023-04-08T00:42:19;9.80;99.90
33139;DHT22;19501;50.948;5.316;2023-04-08T00:44:45;9.70;99.90
33139;DHT22;19501;50.948;5.316;2023-04-08T00:47:12;9.70;99.90
33139;DHT22;19501;50.948;5.316;2023-04-08T00:49:38;9.70;99.90
33139;DHT22;19501;50.948;5.316;2023-04-08T00:52:04;9.80;99.90
33139;DHT22;19501;50.948;5.316;2023-04-08T00:54:30;9.90;99.90
33139;DHT22;19501;50.948;5.316;2023-04-08T00:56:56;10.00;99.90
33139;DHT22;19501;50.948;5.316;2023-04-08T00:59:26;9.90;99.90
33139;DHT22;19501;50.948;5.316;2023-04-08T01:07:28;9.70;99.90
33139;DHT22;19501;50.948;5.316;2023-04-08T01:09:58;9.70;99.90
33139;DHT22;19501;50.948;5.316;2023-04-08T01:12:28;9.70;99.90
33139;DHT22;19501;50.948;5.316;2023-04-08T01:15:05;9.70;99.90
33139;DHT22;19501;50.948;5.316;2023-04-08T01:17:32;9.70;99.90
33139;DHT22;19501;50.948;5.316;2023-04-08T01:20:00;9.80;99.90
33139;DHT22;19501;50.948;5.316;2023-04-08T01:25:25;9.70;99.90
33139;DHT22;19501;50.948;5.316;2023-04-08T01:27:52;9.70;99.90
33139;DHT22;19501;50.948;5.316;2023-04-08T01:30:23;9.70;99.90
33139;DHT22;19501;50.948;5.316;2023-04-08T01:32:51;9.70;99.90
33139;DHT22;19501;50.948;5.316;2023-04-08T01:35:18;9.70;99.90
33139;DHT22;19501;50.948;5.316;2023-04-08T01:37:46;9.60;99.90
33139;DHT22;19501;50.948;5.316;2023-04-08T01:40:14;9.50;99.90
33139;DHT22;19501;50.948;5.316;2023-04-08T01:42:41;9.50;99.90
33139;DHT22;19501;50.948;5.316;2023-04-08T01:45:08;9.40;99.90
33139;DHT22;19501;50.948;5.316;2023-04-08T01:47:35;9.20;99.90
33139;DHT22;19501;50.948;5.316;2023-04-08T01:50:02;9.40;99.90
33139;DHT22;19501;50.948;5.316;2023-04-08T01:52:29;9.40;99.90
33139;DHT22;19501;50.948;5.316;2023-04-08T01:54:57;9.20;99.90
33139;DHT22;19501;50.948;5.316;2023-04-08T01:57:27;9.40;99.90
33139;DHT22;19501;50.948;5.316;2023-04-08T02:00:03;9.30;99.90
33139;DHT22;19501;50.948;5.316;2023-04-08T02:02:30;9.30;99.90
33139;DHT22;19501;50.948;5.316;2023-04-08T02:04:57;9.40;99.90
33139;DHT22;19501;50.948;5.316;2023-04-08T02:07:23;9.30;99.90
33139;DHT22;19501;50.948;5.316;2023-04-08T02:09:49;9.50;99.90
33139;DHT22;19501;50.948;5.316;2023-04-08T02:12:15;9.60;99.90
33139;DHT22;19501;50.948;5.316;2023-04-08T02:14:41;9.60;99.90
33139;DHT22;19501;50.948;5.316;2023-04-08T02:17:20;9.60;99.90
33139;DHT22;19501;50.948;5.316;2023-04-08T02:19:48;9.60;99.90
33139;DHT22;19501;50.948;5.316;2023-04-08T02:22:37;9.70;99.90
33139;DHT22;19501;50.948;5.316;2023-04-08T02:25:04;9.70;99.90
33139;DHT22;19501;50.948;5.316;2023-04-08T02:27:33;9.70;99.90
33139;DHT22;19501;50.948;5.316;2023-04-08T02:30:02;9.50;99.90
33139;DHT22;19501;50.948;5.316;2023-04-08T02:32:31;9.40;99.90
33139;DHT22;19501;50.948;5.316;2023-04-08T02:34:59;9.50;99.90
33139;DHT22;19501;50.948;5.316;2023-04-08T02:37:27;9.50;99.90
33139;DHT22;19501;50.948;5.316;2023-04-08T02:39:53;9.50;99.90
33139;DHT22;19501;50.948;5.316;2023-04-08T02:42:18;9.50;99.90
33139;DHT22;19501;50.948;5.316;2023-04-08T02:44:44;9.50;99.90
33139;DHT22;19501;50.948;5.316;2023-04-08T02:47:10;9.50;99.90
33139;DHT22;19501;50.948;5.316;2023-04-08T02:49:36;9.30;99.90
33139;DHT22;19501;50.948;5.316;2023-04-08T02:52:01;9.30;99.90
33139;DHT22;19501;50.948;5.316;2023-04-08T02:54:27;9.20;99.90
33139;DHT22;19501;50.948;5.316;2023-04-08T02:56:53;9.40;99.90
33139;DHT22;19501;50.948;5.316;2023-04-08T02:59:18;9.40;99.90
33139;DHT22;19501;50.948;5.316;2023-04-08T03:01:44;9.50;99.90
33139;DHT22;19501;50.948;5.316;2023-04-08T03:04:10;9.50;99.90
33139;DHT22;19501;50.948;5.316;2023-04-08T03:06:38;9.50;99.90
33139;DHT22;19501;50.948;5.316;2023-04-08T03:09:03;9.50;99.90
33139;DHT22;19501;50.948;5.316;2023-04-08T03:11:30;9.50;99.90
33139;DHT22;19501;50.948;5.316;2023-04-08T03:13:56;9.60;99.90
33139;DHT22;19501;50.948;5.316;2023-04-08T03:16:22;9.50;99.90
33139;DHT22;19501;50.948;5.316;2023-04-08T03:18:49;9.50;99.90
33139;DHT22;19501;50.948;5.316;2023-04-08T03:21:15;9.40;99.90
33139;DHT22;19501;50.948;5.316;2023-04-08T03:23:41;9.30;99.90
33139;DHT22;19501;50.948;5.316;2023-04-08T03:26:10;9.10;99.90
33139;DHT22;19501;50.948;5.316;2023-04-08T03:28:35;9.10;99.90
33139;DHT22;19501;50.948;5.316;2023-04-08T03:31:04;9.30;99.90
33139;DHT22;19501;50.948;5.316;2023-04-08T03:33:30;9.50;99.90
33139;DHT22;19501;50.948;5.316;2023-04-08T03:35:56;9.40;99.90
33139;DHT22;19501;50.948;5.316;2023-04-08T03:38:21;9.30;99.90
33139;DHT22;19501;50.948;5.316;2023-04-08T03:40:47;9.30;99.90
33139;DHT22;19501;50.948;5.316;2023-04-08T03:43:13;9.30;99.90
33139;DHT22;19501;50.948;5.316;2023-04-08T03:45:39;9.20;99.90
33139;DHT22;19501;50.948;5.316;2023-04-08T03:48:07;9.30;99.90
33139;DHT22;19501;50.948;5.316;2023-04-08T03:50:32;9.30;99.90
33139;DHT22;19501;50.948;5.316;2023-04-08T03:52:58;9.20;99.90
33139;DHT22;19501;50.948;5.316;2023-04-08T03:55:24;9.30;99.90
33139;DHT22;19501;50.948;5.316;2023-04-08T03:57:49;9.40;99.90
33139;DHT22;19501;50.948;5.316;2023-04-08T04:00:17;9.50;99.90
33139;DHT22;19501;50.948;5.316;2023-04-08T04:02:43;9.40;99.90
33139;DHT22;19501;50.948;5.316;2023-04-08T04:05:09;9.50;99.90
33139;DHT22;19501;50.948;5.316;2023-04-08T04:07:34;9.50;99.90
33139;DHT22;19501;50.948;5.316;2023-04-08T04:10:00;9.60;99.90
33139;DHT22;19501;50.948;5.316;2023-04-08T04:12:26;9.60;99.90
33139;DHT22;19501;50.948;5.316;2023-04-08T04:14:51;9.50;99.90
33139;DHT22;19501;50.948;5.316;2023-04-08T04:17:17;9.50;99.90
33139;DHT22;19501;50.948;5.316;2023-04-08T04:19:43;9.50;99.90
33139;DHT22;19501;50.948;5.316;2023-04-08T04:22:08;9.50;99.90
33139;DHT22;19501;50.948;5.316;2023-04-08T04:24:34;9.60;99.90
33139;DHT22;19501;50.948;5.316;2023-04-08T04:27:00;9.60;99.90
33139;DHT22;19501;50.948;5.316;2023-04-08T04:29:25;9.60;99.90
33139;DHT22;19501;50.948;5.316;2023-04-08T04:31:51;9.60;99.90
33139;DHT22;19501;50.948;5.316;2023-04-08T04:34:17;9.70;99.90
33139;DHT22;19501;50.948;5.316;2023-04-08T04:36:42;9.70;99.90
33139;DHT22;19501;50.948;5.316;2023-04-08T04:39:10;9.80;99.90
33139;DHT22;19501;50.948;5.316;2023-04-08T04:41:36;9.80;99.90
33139;DHT22;19501;50.948;5.316;2023-04-08T04:44:05;9.80;99.90
33139;DHT22;19501;50.948;5.316;2023-04-08T04:46:31;9.60;99.90
33139;DHT22;19501;50.948;5.316;2023-04-08T04:48:56;9.60;99.90
33139;DHT22;19501;50.948;5.316;2023-04-08T04:51:22;9.70;99.90
33139;DHT22;19501;50.948;5.316;2023-04-08T04:53:48;9.70;99.90
33139;DHT22;19501;50.948;5.316;2023-04-08T04:56:14;9.70;99.90
33139;DHT22;19501;50.948;5.316;2023-04-08T04:58:40;9.70;99.90
33139;DHT22;19501;50.948;5.316;2023-04-08T05:01:06;9.50;99.90
33139;DHT22;19501;50.948;5.316;2023-04-08T05:03:32;9.20;99.90
33139;DHT22;19501;50.948;5.316;2023-04-08T05:05:57;9.10;99.90
33139;DHT22;19501;50.948;5.316;2023-04-08T05:08:23;9.20;99.90
33139;DHT22;19501;50.948;5.316;2023-04-08T05:10:49;9.30;99.90
33139;DHT22;19501;50.948;5.316;2023-04-08T05:13:16;9.30;99.90
33139;DHT22;19501;50.948;5.316;2023-04-08T05:15:42;9.50;99.90
33139;DHT22;19501;50.948;5.316;2023-04-08T05:18:10;9.60;99.90
33139;DHT22;19501;50.948;5.316;2023-04-08T05:20:36;9.50;99.90
33139;DHT22;19501;50.948;5.316;2023-04-08T05:23:02;9.60;99.90
33139;DHT22;19501;50.948;5.316;2023-04-08T05:25:29;9.50;99.90
33139;DHT22;19501;50.948;5.316;2023-04-08T05:27:55;9.60;99.90
33139;DHT22;19501;50.948;5.316;2023-04-08T05:30:21;9.70;99.90
33139;DHT22;19501;50.948;5.316;2023-04-08T05:32:46;9.70;99.90
33139;DHT22;19501;50.948;5.316;2023-04-08T05:35:12;9.70;99.90
33139;DHT22;19501;50.948;5.316;2023-04-08T05:37:38;9.80;99.90
33139;DHT22;19501;50.948;5.316;2023-04-08T05:40:04;9.70;99.90
33139;DHT22;19501;50.948;5.316;2023-04-08T05:42:30;9.40;99.90
33139;DHT22;19501;50.948;5.316;2023-04-08T05:44:56;9.10;99.90
33139;DHT22;19501;50.948;5.316;2023-04-08T05:47:24;9.10;99.90
33139;DHT22;19501;50.948;5.316;2023-04-08T05:49:50;8.90;99.90
33139;DHT22;19501;50.948;5.316;2023-04-08T05:52:15;8.70;99.90
33139;DHT22;19501;50.948;5.316;2023-04-08T05:54:46;8.80;99.90
33139;DHT22;19501;50.948;5.316;2023-04-08T05:57:12;8.80;99.90
33139;DHT22;19501;50.948;5.316;2023-04-08T05:59:38;8.90;99.90
33139;DHT22;19501;50.948;5.316;2023-04-08T06:02:03;8.90;99.90
33139;DHT22;19501;50.948;5.316;2023-04-08T06:04:29;8.90;99.90
33139;DHT22;19501;50.948;5.316;2023-04-08T06:06:57;8.90;99.90
33139;DHT22;19501;50.948;5.316;2023-04-08T06:09:26;9.10;99.90
33139;DHT22;19501;50.948;5.316;2023-04-08T06:11:52;9.10;99.90
33139;DHT22;19501;50.948;5.316;2023-04-08T06:14:18;9.10;99.90
33139;DHT22;19501;50.948;5.316;2023-04-08T06:16:47;9.10;99.90
33139;DHT22;19501;50.948;5.316;2023-04-08T06:19:13;9.20;99.90
33139;DHT22;19501;50.948;5.316;2023-04-08T06:21:38;9.20;99.90
33139;DHT22;19501;50.948;5.316;2023-04-08T06:24:06;9.20;99.90
33139;DHT22;19501;50.948;5.316;2023-04-08T06:26:32;9.10;99.90
33139;DHT22;19501;50.948;5.316;2023-04-08T06:28:57;9.10;99.90
33139;DHT22;19501;50.948;5.316;2023-04-08T06:31:26;9.20;99.90
33139;DHT22;19501;50.948;5.316;2023-04-08T06:33:54;9.30;99.90
33139;DHT22;19501;50.948;5.316;2023-04-08T06:36:20;9.20;99.90
33139;DHT22;19501;50.948;5.316;2023-04-08T06:38:46;9.10;99.90
33139;DHT22;19501;50.948;5.316;2023-04-08T06:41:11;9.10;99.90
33139;DHT22;19501;50.948;5.316;2023-04-08T06:43:37;9.10;99.90
33139;DHT22;19501;50.948;5.316;2023-04-08T06:46:03;9.10;99.90
33139;DHT22;19501;50.948;5.316;2023-04-08T06:48:28;9.30;99.90
33139;DHT22;19501;50.948;5.316;2023-04-08T06:51:00;9.60;99.90
33139;DHT22;19501;50.948;5.316;2023-04-08T06:53:26;9.70;99.90
33139;DHT22;19501;50.948;5.316;2023-04-08T06:55:53;9.80;99.90
33139;DHT22;19501;50.948;5.316;2023-04-08T06:58:19;9.90;99.90
33139;DHT22;19501;50.948;5.316;2023-04-08T07:00:45;9.80;99.90
33139;DHT22;19501;50.948;5.316;2023-04-08T07:03:11;9.80;99.90
33139;DHT22;19501;50.948;5.316;2023-04-08T07:05:37;9.90;99.90
33139;DHT22;19501;50.948;5.316;2023-04-08T07:08:06;10.20;99.90
33139;DHT22;19501;50.948;5.316;2023-04-08T07:10:33;10.40;99.90
33139;DHT22;19501;50.948;5.316;2023-04-08T07:12:59;10.30;99.90
33139;DHT22;19501;50.948;5.316;2023-04-08T07:15:24;10.30;99.90
33139;DHT22;19501;50.948;5.316;2023-04-08T07:17:52;10.20;99.90
33139;DHT22;19501;50.948;5.316;2023-04-08T07:20:21;10.50;99.90
33139;DHT22;19501;50.948;5.316;2023-04-08T07:22:47;10.70;99.90
33139;DHT22;19501;50.948;5.316;2023-04-08T07:25:13;10.60;99.90
33139;DHT22;19501;50.948;5.316;2023-04-08T07:27:39;10.70;99.90
33139;DHT22;19501;50.948;5.316;2023-04-08T07:30:05;10.90;99.90
33139;DHT22;19501;50.948;5.316;2023-04-08T07:32:32;11.00;99.90
33139;DHT22;19501;50.948;5.316;2023-04-08T07:34:58;11.00;99.90
33139;DHT22;19501;50.948;5.316;2023-04-08T07:37:24;11.00;99.90
33139;DHT22;19501;50.948;5.316;2023-04-08T07:39:52;11.10;99.90
33139;DHT22;19501;50.948;5.316;2023-04-08T07:42:18;11.00;99.90
33139;DHT22;19501;50.948;5.316;2023-04-08T07:44:47;11.00;99.90
33139;DHT22;19501;50.948;5.316;2023-04-08T07:47:13;11.20;99.90
33139;DHT22;19501;50.948;5.316;2023-04-08T07:49:38;10.90;99.90
33139;DHT22;19501;50.948;5.316;2023-04-08T07:52:05;10.80;99.90
33139;DHT22;19501;50.948;5.316;2023-04-08T07:54:31;10.90;99.90
33139;DHT22;19501;50.948;5.316;2023-04-08T07:57:00;10.90;99.90
33139;DHT22;19501;50.948;5.316;2023-04-08T07:59:27;11.00;99.90
33139;DHT22;19501;50.948;5.316;2023-04-08T08:01:53;11.30;99.90
33139;DHT22;19501;50.948;5.316;2023-04-08T08:04:18;11.20;99.90
33139;DHT22;19501;50.948;5.316;2023-04-08T08:06:44;11.00;99.90
33139;DHT22;19501;50.948;5.316;2023-04-08T08:09:10;11.10;99.90
33139;DHT22;19501;50.948;5.316;2023-04-08T08:11:36;11.20;99.90
33139;DHT22;19501;50.948;5.316;2023-04-08T08:14:02;11.50;99.90
33139;DHT22;19501;50.948;5.316;2023-04-08T08:16:29;11.70;99.90
33139;DHT22;19501;50.948;5.316;2023-04-08T08:18:58;11.40;99.90
33139;DHT22;19501;50.948;5.316;2023-04-08T08:21:24;11.40;99.90
33139;DHT22;19501;50.948;5.316;2023-04-08T08:23:51;11.00;99.90
33139;DHT22;19501;50.948;5.316;2023-04-08T08:26:17;11.10;99.90
33139;DHT22;19501;50.948;5.316;2023-04-08T08:28:43;11.50;99.90
33139;DHT22;19501;50.948;5.316;2023-04-08T08:31:08;11.70;99.90
33139;DHT22;19501;50.948;5.316;2023-04-08T08:33:34;12.20;99.90
33139;DHT22;19501;50.948;5.316;2023-04-08T08:36:00;12.00;99.90
33139;DHT22;19501;50.948;5.316;2023-04-08T08:38:26;12.20;99.90
33139;DHT22;19501;50.948;5.316;2023-04-08T08:40:59;12.20;99.90
33139;DHT22;19501;50.948;5.316;2023-04-08T08:43:25;12.40;99.90
33139;DHT22;19501;50.948;5.316;2023-04-08T08:45:52;12.30;99.90
33139;DHT22;19501;50.948;5.316;2023-04-08T08:48:18;12.60;99.90
33139;DHT22;19501;50.948;5.316;2023-04-08T08:50:44;12.80;99.90
33139;DHT22;19501;50.948;5.316;2023-04-08T08:53:10;12.80;99.90
33139;DHT22;19501;50.948;5.316;2023-04-08T08:55:38;12.50;99.90
33139;DHT22;19501;50.948;5.316;2023-04-08T08:58:05;12.80;99.90
33139;DHT22;19501;50.948;5.316;2023-04-08T09:00:36;12.50;99.90
33139;DHT22;19501;50.948;5.316;2023-04-08T09:03:16;12.30;99.90
33139;DHT22;19501;50.948;5.316;2023-04-08T09:05:53;12.10;99.90
33139;DHT22;19501;50.948;5.316;2023-04-08T09:10:48;12.00;99.90
33139;DHT22;19501;50.948;5.316;2023-04-08T09:13:16;12.50;99.90
33139;DHT22;19501;50.948;5.316;2023-04-08T09:16:01;13.20;99.90
33139;DHT22;19501;50.948;5.316;2023-04-08T09:18:28;12.80;99.90
33139;DHT22;19501;50.948;5.316;2023-04-08T09:20:54;12.40;99.90
33139;DHT22;19501;50.948;5.316;2023-04-08T09:23:19;12.20;99.90
33139;DHT22;19501;50.948;5.316;2023-04-08T09:25:45;12.30;99.90
33139;DHT22;19501;50.948;5.316;2023-04-08T09:28:20;12.20;99.90
33139;DHT22;19501;50.948;5.316;2023-04-08T09:30:46;12.60;99.90
33139;DHT22;19501;50.948;5.316;2023-04-08T09:33:12;12.70;99.90
33139;DHT22;19501;50.948;5.316;2023-04-08T09:35:37;13.10;99.90
33139;DHT22;19501;50.948;5.316;2023-04-08T09:38:03;13.40;99.90
33139;DHT22;19501;50.948;5.316;2023-04-08T09:40:33;13.60;99.90
33139;DHT22;19501;50.948;5.316;2023-04-08T09:43:04;13.90;99.90
33139;DHT22;19501;50.948;5.316;2023-04-08T09:45:32;13.80;99.90
33139;DHT22;19501;50.948;5.316;2023-04-08T09:48:17;13.50;99.90
33139;DHT22;19501;50.948;5.316;2023-04-08T09:50:49;13.40;99.90
33139;DHT22;19501;50.948;5.316;2023-04-08T09:53:45;13.40;99.90
33139;DHT22;19501;50.948;5.316;2023-04-08T09:56:13;13.30;99.90
33139;DHT22;19501;50.948;5.316;2023-04-08T09:58:51;13.40;99.90
33139;DHT22;19501;50.948;5.316;2023-04-08T10:01:23;13.70;99.90
33139;DHT22;19501;50.948;5.316;2023-04-08T10:03:54;13.70;99.90
33139;DHT22;19501;50.948;5.316;2023-04-08T10:06:27;14.10;99.90
33139;DHT22;19501;50.948;5.316;2023-04-08T10:08:55;14.60;99.90
33139;DHT22;19501;50.948;5.316;2023-04-08T10:11:21;14.80;99.90
33139;DHT22;19501;50.948;5.316;2023-04-08T10:13:47;15.00;99.90
33139;DHT22;19501;50.948;5.316;2023-04-08T10:16:21;15.40;99.90
33139;DHT22;19501;50.948;5.316;2023-04-08T10:18:47;15.50;99.90
33139;DHT22;19501;50.948;5.316;2023-04-08T10:21:37;15.40;99.90
33139;DHT22;19501;50.948;5.316;2023-04-08T10:24:10;14.90;99.90
33139;DHT22;19501;50.948;5.316;2023-04-08T10:26:41;14.90;99.90
33139;DHT22;19501;50.948;5.316;2023-04-08T10:31:42;15.00;99.90
33139;DHT22;19501;50.948;5.316;2023-04-08T10:34:23;15.20;99.90
33139;DHT22;19501;50.948;5.316;2023-04-08T10:36:51;15.30;99.90
33139;DHT22;19501;50.948;5.316;2023-04-08T10:39:17;15.50;99.90
33139;DHT22;19501;50.948;5.316;2023-04-08T10:41:44;15.30;99.90
33139;DHT22;19501;50.948;5.316;2023-04-08T10:46:42;15.80;99.90
33139;DHT22;19501;50.948;5.316;2023-04-08T10:49:08;15.60;99.90
33139;DHT22;19501;50.948;5.316;2023-04-08T10:51:34;15.80;99.90
33139;DHT22;19501;50.948;5.316;2023-04-08T10:56:33;15.70;99.90
33139;DHT22;19501;50.948;5.316;2023-04-08T10:59:00;15.70;99.90
33139;DHT22;19501;50.948;5.316;2023-04-08T11:01:26;15.50;99.90
33139;DHT22;19501;50.948;5.316;2023-04-08T11:03:52;16.10;99.90
33139;DHT22;19501;50.948;5.316;2023-04-08T11:06:18;16.80;99.90
33139;DHT22;19501;50.948;5.316;2023-04-08T11:08:44;17.80;99.90
33139;DHT22;19501;50.948;5.316;2023-04-08T11:11:10;17.40;99.90
33139;DHT22;19501;50.948;5.316;2023-04-08T11:13:38;17.20;99.90
33139;DHT22;19501;50.948;5.316;2023-04-08T11:16:06;18.40;99.90
33139;DHT22;19501;50.948;5.316;2023-04-08T11:18:39;19.10;99.90
33139;DHT22;19501;50.948;5.316;2023-04-08T11:21:11;18.40;99.90
33139;DHT22;19501;50.948;5.316;2023-04-08T11:23:37;17.30;99.90
33139;DHT22;19501;50.948;5.316;2023-04-08T11:26:03;17.10;99.90
33139;DHT22;19501;50.948;5.316;2023-04-08T11:28:31;17.30;99.90
33139;DHT22;19501;50.948;5.316;2023-04-08T11:30:57;17.60;99.90
33139;DHT22;19501;50.948;5.316;2023-04-08T11:33:26;17.50;99.90
33139;DHT22;19501;50.948;5.316;2023-04-08T11:35:55;18.00;99.90
33139;DHT22;19501;50.948;5.316;2023-04-08T11:38:22;18.70;99.90
33139;DHT22;19501;50.948;5.316;2023-04-08T11:40:57;19.60;99.90
33139;DHT22;19501;50.948;5.316;2023-04-08T11:43:24;19.70;99.90
33139;DHT22;19501;50.948;5.316;2023-04-08T11:45:50;19.30;99.90
33139;DHT22;19501;50.948;5.316;2023-04-08T11:48:16;19.40;99.90
33139;DHT22;19501;50.948;5.316;2023-04-08T11:50:43;18.20;99.90
33139;DHT22;19501;50.948;5.316;2023-04-08T11:53:19;17.80;99.90
33139;DHT22;19501;50.948;5.316;2023-04-08T11:55:46;17.90;99.90
33139;DHT22;19501;50.948;5.316;2023-04-08T11:58:12;18.50;99.90
33139;DHT22;19501;50.948;5.316;2023-04-08T12:00:38;19.80;99.90
33139;DHT22;19501;50.948;5.316;2023-04-08T12:03:05;19.00;99.90
33139;DHT22;19501;50.948;5.316;2023-04-08T12:05:31;19.10;98.70
33139;DHT22;19501;50.948;5.316;2023-04-08T12:07:57;18.30;99.90
33139;DHT22;19501;50.948;5.316;2023-04-08T12:10:25;18.60;99.60
33139;DHT22;19501;50.948;5.316;2023-04-08T12:12:50;19.80;99.20
33139;DHT22;19501;50.948;5.316;2023-04-08T12:15:16;21.40;96.70
33139;DHT22;19501;50.948;5.316;2023-04-08T12:17:42;21.30;95.50
33139;DHT22;19501;50.948;5.316;2023-04-08T12:20:09;20.50;96.00
33139;DHT22;19501;50.948;5.316;2023-04-08T12:22:35;19.20;97.70
33139;DHT22;19501;50.948;5.316;2023-04-08T12:25:01;19.80;97.50
33139;DHT22;19501;50.948;5.316;2023-04-08T12:27:28;19.20;96.60
33139;DHT22;19501;50.948;5.316;2023-04-08T12:29:54;18.90;97.60
33139;DHT22;19501;50.948;5.316;2023-04-08T12:32:20;18.50;97.30
33139;DHT22;19501;50.948;5.316;2023-04-08T12:34:46;19.90;97.20
33139;DHT22;19501;50.948;5.316;2023-04-08T12:37:12;20.50;95.40
33139;DHT22;19501;50.948;5.316;2023-04-08T12:39:38;21.30;95.70
33139;DHT22;19501;50.948;5.316;2023-04-08T12:42:03;22.80;94.80
33139;DHT22;19501;50.948;5.316;2023-04-08T12:44:29;22.80;92.80
33139;DHT22;19501;50.948;5.316;2023-04-08T12:46:55;24.70;93.10
33139;DHT22;19501;50.948;5.316;2023-04-08T12:49:23;25.80;89.60
33139;DHT22;19501;50.948;5.316;2023-04-08T12:51:49;24.20;89.80
33139;DHT22;19501;50.948;5.316;2023-04-08T12:54:14;23.50;89.40
33139;DHT22;19501;50.948;5.316;2023-04-08T12:56:41;24.20;87.20
33139;DHT22;19501;50.948;5.316;2023-04-08T12:59:10;23.50;87.60
33139;DHT22;19501;50.948;5.316;2023-04-08T13:01:35;23.60;90.50
33139;DHT22;19501;50.948;5.316;2023-04-08T13:04:01;24.30;86.70
33139;DHT22;19501;50.948;5.316;2023-04-08T13:06:27;23.90;88.20
33139;DHT22;19501;50.948;5.316;2023-04-08T13:08:53;23.60;88.40
33139;DHT22;19501;50.948;5.316;2023-04-08T13:11:19;23.70;89.20
33139;DHT22;19501;50.948;5.316;2023-04-08T13:13:45;24.80;86.70
33139;DHT22;19501;50.948;5.316;2023-04-08T13:16:12;22.70;85.40
33139;DHT22;19501;50.948;5.316;2023-04-08T13:18:38;21.10;90.20
33139;DHT22;19501;50.948;5.316;2023-04-08T13:21:05;20.40;91.30
33139;DHT22;19501;50.948;5.316;2023-04-08T13:23:31;20.50;90.30
33139;DHT22;19501;50.948;5.316;2023-04-08T13:25:57;20.00;90.30
33139;DHT22;19501;50.948;5.316;2023-04-08T13:28:22;19.90;90.60
33139;DHT22;19501;50.948;5.316;2023-04-08T13:30:48;19.40;90.40
33139;DHT22;19501;50.948;5.316;2023-04-08T13:33:16;19.60;91.10
33139;DHT22;19501;50.948;5.316;2023-04-08T13:35:42;21.80;90.00
33139;DHT22;19501;50.948;5.316;2023-04-08T13:38:07;23.40;86.50
33139;DHT22;19501;50.948;5.316;2023-04-08T13:40:33;25.30;84.40
33139;DHT22;19501;50.948;5.316;2023-04-08T13:42:59;26.50;80.80
33139;DHT22;19501;50.948;5.316;2023-04-08T13:45:26;27.50;77.80
33139;DHT22;19501;50.948;5.316;2023-04-08T13:47:51;27.10;74.90
33139;DHT22;19501;50.948;5.316;2023-04-08T13:50:18;26.90;76.60
33139;DHT22;19501;50.948;5.316;2023-04-08T13:52:44;26.80;75.10
33139;DHT22;19501;50.948;5.316;2023-04-08T13:55:10;26.50;72.80
33139;DHT22;19501;50.948;5.316;2023-04-08T13:57:35;24.40;73.50
33139;DHT22;19501;50.948;5.316;2023-04-08T14:00:04;23.80;77.10
33139;DHT22;19501;50.948;5.316;2023-04-08T14:02:29;24.00;76.80
33139;DHT22;19501;50.948;5.316;2023-04-08T14:04:56;22.20;78.10
33139;DHT22;19501;50.948;5.316;2023-04-08T14:07:22;23.30;79.50
33139;DHT22;19501;50.948;5.316;2023-04-08T14:09:47;23.40;75.70
33139;DHT22;19501;50.948;5.316;2023-04-08T14:12:13;22.60;75.10
33139;DHT22;19501;50.948;5.316;2023-04-08T14:14:39;23.10;77.70
33139;DHT22;19501;50.948;5.316;2023-04-08T14:17:04;24.30;77.30
33139;DHT22;19501;50.948;5.316;2023-04-08T14:19:30;24.10;76.60
33139;DHT22;19501;50.948;5.316;2023-04-08T14:21:56;23.80;76.60
33139;DHT22;19501;50.948;5.316;2023-04-08T14:24:22;22.50;78.10
33139;DHT22;19501;50.948;5.316;2023-04-08T14:26:47;22.10;79.60
33139;DHT22;19501;50.948;5.316;2023-04-08T14:29:13;21.30;77.40
33139;DHT22;19501;50.948;5.316;2023-04-08T14:31:39;20.80;79.40
33139;DHT22;19501;50.948;5.316;2023-04-08T14:34:04;20.20;78.20
33139;DHT22;19501;50.948;5.316;2023-04-08T14:36:30;19.70;82.00
33139;DHT22;19501;50.948;5.316;2023-04-08T14:38:57;19.70;83.40
33139;DHT22;19501;50.948;5.316;2023-04-08T14:41:23;19.80;84.20
33139;DHT22;19501;50.948;5.316;2023-04-08T14:43:50;20.00;84.10
33139;DHT22;19501;50.948;5.316;2023-04-08T14:46:16;20.10;85.30
33139;DHT22;19501;50.948;5.316;2023-04-08T14:48:42;19.90;86.60
33139;DHT22;19501;50.948;5.316;2023-04-08T14:51:07;19.20;85.10
33139;DHT22;19501;50.948;5.316;2023-04-08T14:53:33;18.90;87.00
33139;DHT22;19501;50.948;5.316;2023-04-08T14:56:00;19.00;86.40
33139;DHT22;19501;50.948;5.316;2023-04-08T14:58:26;18.90;87.80
33139;DHT22;19501;50.948;5.316;2023-04-08T15:00:51;19.10;86.00
33139;DHT22;19501;50.948;5.316;2023-04-08T15:03:17;18.90;83.90
33139;DHT22;19501;50.948;5.316;2023-04-08T15:05:43;18.30;84.60
33139;DHT22;19501;50.948;5.316;2023-04-08T15:08:10;18.20;85.80
33139;DHT22;19501;50.948;5.316;2023-04-08T15:10:35;18.60;87.00
33139;DHT22;19501;50.948;5.316;2023-04-08T15:13:01;19.20;85.60
33139;DHT22;19501;50.948;5.316;2023-04-08T15:15:27;19.90;84.00
33139;DHT22;19501;50.948;5.316;2023-04-08T15:17:53;20.40;83.80
33139;DHT22;19501;50.948;5.316;2023-04-08T15:20:18;20.30;84.50
33139;DHT22;19501;50.948;5.316;2023-04-08T15:22:45;20.40;85.20
33139;DHT22;19501;50.948;5.316;2023-04-08T15:25:11;19.70;84.20
33139;DHT22;19501;50.948;5.316;2023-04-08T15:27:37;19.70;84.00
33139;DHT22;19501;50.948;5.316;2023-04-08T15:30:04;19.80;82.90
33139;DHT22;19501;50.948;5.316;2023-04-08T15:32:30;19.40;83.60
33139;DHT22;19501;50.948;5.316;2023-04-08T15:34:56;19.50;82.20
33139;DHT22;19501;50.948;5.316;2023-04-08T15:37:22;19.40;81.20
33139;DHT22;19501;50.948;5.316;2023-04-08T15:39:49;19.10;82.00
33139;DHT22;19501;50.948;5.316;2023-04-08T15:42:15;18.90;84.10
33139;DHT22;19501;50.948;5.316;2023-04-08T15:44:41;19.00;83.50
33139;DHT22;19501;50.948;5.316;2023-04-08T15:47:06;18.70;84.70
33139;DHT22;19501;50.948;5.316;2023-04-08T15:49:32;18.50;82.80
33139;DHT22;19501;50.948;5.316;2023-04-08T15:51:58;18.10;83.40
33139;DHT22;19501;50.948;5.316;2023-04-08T15:54:24;18.10;84.30